Time;durP1;ratioP1;P1;durP2;ratioP2;P2;SDS_P1;SDS_P2;PMS_P1;PMS_P2;Temp;Humidity;BMP_temperature;BMP_pressure;BME280_temperature;BME280_humidity;BME280_pressure;Samples;Min_cycle;Max_cycle;Signal;HPM_P1;HPM_P2
2021/12/21 00:01:53;;;;;;;7.40;2.67;;;;;;;;;;5039580;28;20045;-77
2021/12/21 00:04:18;;;;;;;6.60;2.70;;;;;;;;;;5037986;28;20032;-77
2021/12/21 00:06:44;;;;;;;10.90;3.10;;;;;;;;;;5039618;28;20097;-76
2021/12/21 00:09:09;;;;;;;11.38;3.30;;;;;;;;;;5037247;28;20414;-77
2021/12/21 00:11:36;;;;;;;6.60;3.63;;;;;;;;;;5037276;28;20021;-78
2021/12/21 00:16:51;;;;;;;7.60;3.47;;;;;;;;;;5039364;28;20029;-78
2021/12/21 00:21:51;;;;;;;9.95;4.40;;;;;;;;;;5046351;28;20091;-77
2021/12/21 00:24:21;;;;;;;12.57;5.18;;;;;;;;;;5039969;28;20049;-78
2021/12/21 00:26:46;;;;;;;9.85;4.72;;;;;;;;;;5040680;28;20025;-78
2021/12/21 00:29:12;;;;;;;13.40;5.05;;;;;;;;;;5040321;28;20299;-79
2021/12/21 00:31:38;;;;;;;9.88;5.25;;;;;;;;;;5040684;28;20045;-79
2021/12/21 00:34:08;;;;;;;9.38;5.20;;;;;;;;;;5040199;28;20037;-78
2021/12/21 00:36:35;;;;;;;10.73;4.93;;;;;;;;;;5039923;28;20096;-78
2021/12/21 00:39:06;;;;;;;11.32;4.97;;;;;;;;;;5039511;28;20406;-79
2021/12/21 00:41:32;;;;;;;11.40;5.50;;;;;;;;;;5037983;28;20434;-78
2021/12/21 00:43:58;;;;;;;12.20;5.18;;;;;;;;;;5038844;28;20036;-79
2021/12/21 00:46:24;;;;;;;10.50;5.18;;;;;;;;;;5039962;28;20029;-79
2021/12/21 00:48:52;;;;;;;11.65;5.50;;;;;;;;;;5039749;28;20017;-76
2021/12/21 00:51:21;;;;;;;11.75;5.60;;;;;;;;;;5039402;28;20037;-79
2021/12/21 00:53:47;;;;;;;10.73;5.50;;;;;;;;;;5037890;28;20083;-79
2021/12/21 00:56:12;;;;;;;11.10;5.55;;;;;;;;;;5038560;28;20041;-79
2021/12/21 00:58:37;;;;;;;10.52;5.88;;;;;;;;;;5038188;28;20100;-79
2021/12/21 01:01:07;;;;;;;9.70;5.45;;;;;;;;;;5037750;28;20033;-78
2021/12/21 01:03:40;;;;;;;11.50;5.57;;;;;;;;;;5030548;28;20033;-77
2021/12/21 01:06:37;;;;;;;9.82;4.82;;;;;;;;;;5030126;28;20124;-77
2021/12/21 01:11:25;;;;;;;13.88;6.35;;;;;;;;;;5029451;28;20052;-77
2021/12/21 01:14:01;;;;;;;11.80;5.57;;;;;;;;;;5029992;28;20018;-77
2021/12/21 01:21:30;;;;;;;11.75;5.50;;;;;;;;;;5029858;28;20025;-77
2021/12/21 01:24:09;;;;;;;9.73;5.20;;;;;;;;;;5029700;28;20025;-77
2021/12/21 01:29:24;;;;;;;12.73;5.28;;;;;;;;;;5029783;28;20376;-77
2021/12/21 01:32:08;;;;;;;11.68;4.55;;;;;;;;;;5029684;28;20072;-77
2021/12/21 01:37:06;;;;;;;9.02;4.47;;;;;;;;;;5030248;28;20029;-77
2021/12/21 01:49:55;;;;;;;6.55;3.92;;;;;;;;;;5030341;28;20113;-78
2021/12/21 01:52:26;;;;;;;12.90;5.93;;;;;;;;;;5030568;28;20052;-78
2021/12/21 01:54:53;;;;;;;8.10;4.30;;;;;;;;;;5030738;28;20028;-77
2021/12/21 01:57:18;;;;;;;12.95;5.38;;;;;;;;;;5030175;28;20113;-77
2021/12/21 01:59:45;;;;;;;9.07;4.53;;;;;;;;;;5030412;28;20124;-77
2021/12/21 02:02:13;;;;;;;8.50;4.20;;;;;;;;;;5030807;28;20022;-77
2021/12/21 02:04:40;;;;;;;14.05;4.80;;;;;;;;;;5030190;28;20049;-77
2021/12/21 02:07:06;;;;;;;9.13;4.28;;;;;;;;;;5030714;28;20087;-78
2021/12/21 02:09:38;;;;;;;15.77;4.80;;;;;;;;;;5031005;28;20030;-77
2021/12/21 02:12:05;;;;;;;8.60;4.90;;;;;;;;;;5031094;28;20013;-77
2021/12/21 02:14:31;;;;;;;10.38;4.72;;;;;;;;;;5031287;28;20061;-78
2021/12/21 02:19:36;;;;;;;13.13;5.05;;;;;;;;;;5031122;28;20060;-78
2021/12/21 02:22:12;;;;;;;8.80;5.13;;;;;;;;;;5031480;28;20025;-78
2021/12/21 02:24:47;;;;;;;12.25;5.57;;;;;;;;;;5035016;28;20036;-78
2021/12/21 02:27:27;;;;;;;11.40;5.35;;;;;;;;;;5033763;28;20029;-78
2021/12/21 02:29:53;;;;;;;6.63;4.15;;;;;;;;;;5034879;28;20049;-78
2021/12/21 02:32:19;;;;;;;10.82;5.00;;;;;;;;;;5035521;28;20056;-78
2021/12/21 02:34:45;;;;;;;9.30;4.90;;;;;;;;;;5035799;28;20033;-78
2021/12/21 02:37:11;;;;;;;13.45;4.50;;;;;;;;;;5035892;28;20391;-78
2021/12/21 02:39:36;;;;;;;10.65;3.88;;;;;;;;;;5034700;28;20120;-78
2021/12/21 02:42:02;;;;;;;10.43;4.72;;;;;;;;;;5034988;28;20068;-78
2021/12/21 02:44:27;;;;;;;11.65;4.55;;;;;;;;;;5036265;28;20059;-78
2021/12/21 02:46:53;;;;;;;11.32;4.60;;;;;;;;;;5036589;28;20025;-78
2021/12/21 02:49:18;;;;;;;13.00;5.20;;;;;;;;;;5036705;28;20025;-78
2021/12/21 02:51:46;;;;;;;13.77;5.00;;;;;;;;;;5036841;28;20032;-78
2021/12/21 02:54:13;;;;;;;7.45;4.47;;;;;;;;;;5038138;28;20514;-78
2021/12/21 02:56:39;;;;;;;9.32;4.38;;;;;;;;;;5037486;28;20075;-78
2021/12/21 02:59:05;;;;;;;11.13;5.07;;;;;;;;;;5041110;28;20021;-78
2021/12/21 03:01:31;;;;;;;9.80;4.68;;;;;;;;;;5040643;28;20076;-78
2021/12/21 03:03:57;;;;;;;9.20;4.90;;;;;;;;;;5038637;28;20025;-78
2021/12/21 03:07:25;;;;;;;10.75;4.93;;;;;;;;;;5038090;28;20570;-78
2021/12/21 03:11:57;;;;;;;14.20;4.78;;;;;;;;;;5032172;28;20576;-77
2021/12/21 03:14:27;;;;;;;7.68;4.88;;;;;;;;;;5032814;28;20083;-77
2021/12/21 03:16:53;;;;;;;10.05;4.50;;;;;;;;;;5032838;28;20029;-77
2021/12/21 03:19:19;;;;;;;8.93;4.32;;;;;;;;;;5032395;28;20087;-76
2021/12/21 03:21:45;;;;;;;10.35;4.55;;;;;;;;;;5032268;28;20025;-77
2021/12/21 03:24:10;;;;;;;11.05;4.28;;;;;;;;;;5033128;28;20161;-77
2021/12/21 03:26:36;;;;;;;8.27;4.50;;;;;;;;;;5033160;28;20387;-77
2021/12/21 03:29:03;;;;;;;10.25;3.88;;;;;;;;;;5033148;28;20356;-77
2021/12/21 03:31:28;;;;;;;11.15;4.28;;;;;;;;;;5032632;28;20107;-77
2021/12/21 03:33:54;;;;;;;11.95;4.30;;;;;;;;;;5032267;28;20029;-77
2021/12/21 03:36:19;;;;;;;10.98;4.53;;;;;;;;;;5031454;28;20364;-77
2021/12/21 03:39:02;;;;;;;8.40;4.03;;;;;;;;;;5031982;28;20025;-77
2021/12/21 03:41:28;;;;;;;10.05;3.75;;;;;;;;;;5032346;28;20622;-77
2021/12/21 03:43:55;;;;;;;12.38;5.07;;;;;;;;;;5031834;28;20125;-77
2021/12/21 03:46:21;;;;;;;9.95;4.25;;;;;;;;;;5030036;28;20045;-77
2021/12/21 03:48:47;;;;;;;9.95;5.15;;;;;;;;;;5032307;28;20446;-77
2021/12/21 03:51:15;;;;;;;10.55;3.80;;;;;;;;;;5032479;28;20021;-77
2021/12/21 03:53:42;;;;;;;11.30;3.88;;;;;;;;;;5031676;28;20490;-76
2021/12/21 03:58:48;;;;;;;6.90;4.22;;;;;;;;;;5031944;28;20033;-77
2021/12/21 04:01:14;;;;;;;10.30;4.05;;;;;;;;;;5031674;28;20050;-76
2021/12/21 04:03:39;;;;;;;10.35;4.07;;;;;;;;;;5031203;28;20112;-77
2021/12/21 04:06:06;;;;;;;8.48;4.50;;;;;;;;;;5032202;28;20061;-77
2021/12/21 04:08:31;;;;;;;7.03;3.83;;;;;;;;;;5031093;28;20060;-77
2021/12/21 04:10:56;;;;;;;11.90;4.43;;;;;;;;;;5031210;28;20558;-77
2021/12/21 04:13:21;;;;;;;6.80;4.13;;;;;;;;;;5031181;28;20105;-77
2021/12/21 04:15:50;;;;;;;9.85;4.03;;;;;;;;;;5030746;28;20041;-77
2021/12/21 04:18:18;;;;;;;9.55;3.97;;;;;;;;;;5030695;28;20436;-77
2021/12/21 04:20:44;;;;;;;8.13;3.47;;;;;;;;;;5030778;28;20372;-77
2021/12/21 04:23:09;;;;;;;7.80;4.00;;;;;;;;;;5030963;28;20056;-77
2021/12/21 04:25:35;;;;;;;8.95;4.13;;;;;;;;;;5030935;28;20029;-76
2021/12/21 04:28:00;;;;;;;5.78;3.90;;;;;;;;;;5030605;28;20043;-76
2021/12/21 04:30:26;;;;;;;9.30;4.30;;;;;;;;;;5030660;28;20357;-76
2021/12/21 04:32:51;;;;;;;8.50;4.18;;;;;;;;;;5030438;28;20108;-77
2021/12/21 04:35:19;;;;;;;9.85;4.50;;;;;;;;;;5030250;28;20453;-77
2021/12/21 04:37:50;;;;;;;8.93;3.95;;;;;;;;;;5030499;28;20393;-77
2021/12/21 04:40:19;;;;;;;8.15;3.60;;;;;;;;;;5030609;28;20029;-77
2021/12/21 04:42:44;;;;;;;10.60;3.72;;;;;;;;;;5030178;28;20040;-77
2021/12/21 04:45:09;;;;;;;9.05;3.83;;;;;;;;;;5030085;28;20026;-77
2021/12/21 04:47:35;;;;;;;6.78;3.10;;;;;;;;;;5029220;28;20514;-76
2021/12/21 04:50:00;;;;;;;6.43;3.50;;;;;;;;;;5030224;28;20029;-77
2021/12/21 04:52:25;;;;;;;6.15;3.08;;;;;;;;;;5028799;28;20032;-77
2021/12/21 04:54:50;;;;;;;8.63;3.50;;;;;;;;;;5029900;28;20108;-76
2021/12/21 04:57:16;;;;;;;7.53;3.25;;;;;;;;;;5030224;28;20060;-76
2021/12/21 04:59:41;;;;;;;8.82;3.85;;;;;;;;;;5029953;28;20491;-77
2021/12/21 05:02:06;;;;;;;9.73;3.67;;;;;;;;;;5029762;28;20088;-77
2021/12/21 05:04:32;;;;;;;11.23;3.40;;;;;;;;;;5030059;28;20041;-76
2021/12/21 05:06:57;;;;;;;10.48;3.38;;;;;;;;;;5030355;28;20704;-77
2021/12/21 05:09:28;;;;;;;6.15;3.70;;;;;;;;;;5029642;28;20033;-76
2021/12/21 05:12:01;;;;;;;8.98;3.72;;;;;;;;;;5029968;28;20327;-76
2021/12/21 05:14:28;;;;;;;7.05;3.30;;;;;;;;;;5029598;28;20029;-76
2021/12/21 05:16:53;;;;;;;7.72;3.70;;;;;;;;;;5030090;28;20026;-76
2021/12/21 05:19:18;;;;;;;7.68;3.47;;;;;;;;;;5030618;28;20029;-76
2021/12/21 05:21:43;;;;;;;9.95;3.80;;;;;;;;;;5030001;28;20091;-77
2021/12/21 05:24:09;;;;;;;8.40;3.80;;;;;;;;;;5029562;28;20578;-76
2021/12/21 05:26:34;;;;;;;6.90;4.05;;;;;;;;;;5029900;28;20040;-76
2021/12/21 05:28:59;;;;;;;7.88;4.00;;;;;;;;;;5029641;28;20091;-77
2021/12/21 05:31:25;;;;;;;18.10;4.70;;;;;;;;;;5029735;28;20025;-76
2021/12/21 05:33:52;;;;;;;11.40;4.90;;;;;;;;;;5029598;28;20047;-77
2021/12/21 05:36:19;;;;;;;10.52;5.05;;;;;;;;;;5029848;28;20439;-76
2021/12/21 05:38:49;;;;;;;10.13;4.93;;;;;;;;;;5029419;28;20060;-77
2021/12/21 05:41:23;;;;;;;13.32;6.07;;;;;;;;;;5029480;28;20364;-76
2021/12/21 05:43:48;;;;;;;15.43;6.40;;;;;;;;;;5029493;28;20506;-77
2021/12/21 05:46:13;;;;;;;13.95;6.57;;;;;;;;;;5029434;28;20025;-76
2021/12/21 05:48:39;;;;;;;13.68;6.60;;;;;;;;;;5029152;28;20543;-76
2021/12/21 05:51:04;;;;;;;10.57;4.53;;;;;;;;;;5029477;28;20021;-76
2021/12/21 05:53:29;;;;;;;8.32;3.70;;;;;;;;;;5029407;28;20033;-76
2021/12/21 05:55:54;;;;;;;8.60;4.07;;;;;;;;;;5029219;28;20105;-76
2021/12/21 05:58:20;;;;;;;10.65;3.92;;;;;;;;;;5031210;28;20519;-76
2021/12/21 06:00:45;;;;;;;9.25;3.33;;;;;;;;;;5033322;28;20113;-76
2021/12/21 06:03:11;;;;;;;8.20;3.00;;;;;;;;;;5033247;28;20059;-76
2021/12/21 06:05:36;;;;;;;8.85;4.05;;;;;;;;;;5033273;28;20025;-76
2021/12/21 06:08:03;;;;;;;7.20;3.50;;;;;;;;;;5033344;28;20419;-76
2021/12/21 06:10:34;;;;;;;7.80;3.95;;;;;;;;;;5033031;28;20029;-76
2021/12/21 06:13:23;;;;;;;8.88;3.55;;;;;;;;;;5033222;28;20025;-76
2021/12/21 06:26:52;;;;;;;8.68;4.22;;;;;;;;;;4995898;28;20532;-76
2021/12/21 06:29:17;;;;;;;7.18;3.70;;;;;;;;;;5032653;28;20037;-76
2021/12/21 06:31:43;;;;;;;12.88;5.70;;;;;;;;;;5032815;28;20500;-76
2021/12/21 06:34:09;;;;;;;9.48;4.40;;;;;;;;;;5032525;28;20029;-76
2021/12/21 06:36:34;;;;;;;11.85;6.38;;;;;;;;;;5032779;28;20135;-76
2021/12/21 06:39:00;;;;;;;11.73;5.82;;;;;;;;;;5032601;28;20025;-76
2021/12/21 06:41:26;;;;;;;13.68;6.88;;;;;;;;;;5032547;28;20066;-76
2021/12/21 06:43:51;;;;;;;13.10;6.68;;;;;;;;;;5032607;28;20017;-75
2021/12/21 06:46:41;;;;;;;8.55;4.03;;;;;;;;;;5032756;28;20110;-75
2021/12/21 06:51:52;;;;;;;9.75;5.18;;;;;;;;;;5032896;28;20066;-76
2021/12/21 06:54:17;;;;;;;8.57;4.32;;;;;;;;;;5032141;28;20037;-76
2021/12/21 06:56:43;;;;;;;11.45;4.72;;;;;;;;;;5032460;28;20026;-75
2021/12/21 06:59:09;;;;;;;8.80;4.32;;;;;;;;;;5033439;28;20057;-75
2021/12/21 07:01:37;;;;;;;9.02;5.30;;;;;;;;;;5031792;28;20029;-74
2021/12/21 07:04:03;;;;;;;13.00;6.05;;;;;;;;;;5029850;28;20051;-75
2021/12/21 07:06:29;;;;;;;10.02;5.13;;;;;;;;;;5035260;28;20068;-76
2021/12/21 07:19:35;;;;;;;12.70;6.15;;;;;;;;;;5031325;28;20032;-77
2021/12/21 07:22:00;;;;;;;7.68;4.65;;;;;;;;;;5029287;28;20014;-76
2021/12/21 07:24:26;;;;;;;10.02;5.57;;;;;;;;;;5025553;28;20044;-76
2021/12/21 07:26:52;;;;;;;14.38;6.15;;;;;;;;;;5026910;28;20079;-76
2021/12/21 07:29:17;;;;;;;9.52;5.18;;;;;;;;;;5027477;28;20462;-76
2021/12/21 07:31:43;;;;;;;9.85;5.13;;;;;;;;;;5027525;28;20045;-77
2021/12/21 07:34:08;;;;;;;10.52;5.47;;;;;;;;;;5027760;28;20025;-76
2021/12/21 07:36:34;;;;;;;9.75;5.80;;;;;;;;;;5027661;28;20021;-76
2021/12/21 07:39:03;;;;;;;11.75;4.68;;;;;;;;;;5029558;28;20017;-76
2021/12/21 07:41:29;;;;;;;17.38;5.30;;;;;;;;;;5028369;28;20021;-76
2021/12/21 07:43:55;;;;;;;11.30;5.32;;;;;;;;;;5027213;28;20037;-76
2021/12/21 07:46:20;;;;;;;14.35;5.97;;;;;;;;;;5027217;28;20509;-75
2021/12/21 07:48:45;;;;;;;27.00;10.50;;;;;;;;;;5027556;28;20279;-75
2021/12/21 07:51:11;;;;;;;49.58;20.67;;;;;;;;;;5027513;28;20060;-76
2021/12/21 07:53:37;;;;;;;41.33;16.65;;;;;;;;;;5027835;28;20399;-76
2021/12/21 07:56:03;;;;;;;39.95;16.23;;;;;;;;;;5026606;28;20148;-76
2021/12/21 07:58:30;;;;;;;24.13;12.82;;;;;;;;;;5039192;28;20093;-75
2021/12/21 08:00:57;;;;;;;21.80;11.90;;;;;;;;;;5039836;28;20029;-76
2021/12/21 08:03:22;;;;;;;23.08;10.77;;;;;;;;;;5027402;28;20388;-76
2021/12/21 08:05:51;;;;;;;13.40;5.47;;;;;;;;;;5036124;28;20632;-75
2021/12/21 08:08:20;;;;;;;10.55;5.47;;;;;;;;;;5028792;28;20029;-76
2021/12/21 08:13:14;;;;;;;10.95;5.05;;;;;;;;;;5025896;28;20029;-75
2021/12/21 08:15:40;;;;;;;10.48;5.05;;;;;;;;;;5026991;28;20463;-75
2021/12/21 08:18:05;;;;;;;9.27;5.82;;;;;;;;;;5026231;28;20026;-76
2021/12/21 08:20:31;;;;;;;15.73;5.32;;;;;;;;;;5026730;28;20029;-76
2021/12/21 08:22:57;;;;;;;12.40;6.78;;;;;;;;;;5027102;28;20021;-75
2021/12/21 08:25:27;;;;;;;15.02;7.65;;;;;;;;;;5026866;28;20029;-75
2021/12/21 08:27:53;;;;;;;15.48;7.10;;;;;;;;;;5044696;28;20021;-76
2021/12/21 08:30:18;;;;;;;12.30;6.35;;;;;;;;;;5047031;28;20047;-76
2021/12/21 08:32:44;;;;;;;14.15;7.55;;;;;;;;;;5040304;28;20039;-77
2021/12/21 08:35:12;;;;;;;13.27;5.95;;;;;;;;;;5030206;28;20028;-76
2021/12/21 08:37:38;;;;;;;17.00;5.68;;;;;;;;;;5047293;28;20481;-77
2021/12/21 08:40:04;;;;;;;8.70;5.30;;;;;;;;;;5044749;28;20434;-77
2021/12/21 08:42:30;;;;;;;11.27;5.75;;;;;;;;;;5044452;28;20646;-78
2021/12/21 08:44:56;;;;;;;10.73;5.72;;;;;;;;;;5026036;28;20025;-76
2021/12/21 08:47:22;;;;;;;10.38;5.20;;;;;;;;;;5027040;28;20557;-77
2021/12/21 08:49:49;;;;;;;10.13;5.30;;;;;;;;;;5027496;28;20033;-77
2021/12/21 08:52:15;;;;;;;7.45;4.43;;;;;;;;;;5031058;28;20743;-79
2021/12/21 08:54:40;;;;;;;9.82;5.68;;;;;;;;;;5033046;28;20064;-78
2021/12/21 08:57:06;;;;;;;8.10;5.20;;;;;;;;;;5032085;28;20026;-78
2021/12/21 08:59:31;;;;;;;14.05;6.22;;;;;;;;;;5036756;28;20114;-78
2021/12/21 09:01:56;;;;;;;7.35;4.90;;;;;;;;;;5034315;28;20040;-77
2021/12/21 09:04:22;;;;;;;8.65;4.63;;;;;;;;;;5030819;28;20018;-78
2021/12/21 09:06:48;;;;;;;7.93;4.75;;;;;;;;;;5032389;28;20375;-77
2021/12/21 09:09:13;;;;;;;9.82;5.80;;;;;;;;;;5048899;28;20024;-77
2021/12/21 09:11:38;;;;;;;8.38;4.53;;;;;;;;;;5044343;28;20060;-79
2021/12/21 09:14:05;;;;;;;10.95;5.63;;;;;;;;;;5031877;28;20114;-79
2021/12/21 09:16:30;;;;;;;9.45;5.72;;;;;;;;;;5032975;28;20493;-78
2021/12/21 09:18:56;;;;;;;11.88;4.97;;;;;;;;;;5032272;28;20036;-78
2021/12/21 09:21:21;;;;;;;7.00;4.50;;;;;;;;;;5032604;28;20022;-76
2021/12/21 09:23:46;;;;;;;8.98;5.40;;;;;;;;;;5033092;28;20036;-77
2021/12/21 09:26:12;;;;;;;8.75;5.05;;;;;;;;;;5028143;28;20570;-77
2021/12/21 09:28:37;;;;;;;10.27;5.50;;;;;;;;;;5026848;28;20029;-76
2021/12/21 09:31:02;;;;;;;8.48;4.70;;;;;;;;;;5026114;28;20113;-76
2021/12/21 09:33:28;;;;;;;7.53;4.88;;;;;;;;;;5025037;28;20056;-77
2021/12/21 09:35:53;;;;;;;8.25;4.20;;;;;;;;;;5020013;28;20029;-76
2021/12/21 09:38:19;;;;;;;7.53;4.80;;;;;;;;;;5021171;28;20030;-76
2021/12/21 09:40:44;;;;;;;12.13;6.00;;;;;;;;;;5024596;28;20025;-76
2021/12/21 09:43:11;;;;;;;8.27;4.85;;;;;;;;;;5024122;28;20033;-76
2021/12/21 09:45:38;;;;;;;8.35;5.55;;;;;;;;;;5025212;28;20033;-76
2021/12/21 09:48:04;;;;;;;8.85;5.00;;;;;;;;;;5025003;28;20029;-76
2021/12/21 09:50:33;;;;;;;8.68;4.88;;;;;;;;;;5027158;28;20054;-76
2021/12/21 09:52:58;;;;;;;9.65;4.60;;;;;;;;;;5024418;28;20052;-76
2021/12/21 09:55:24;;;;;;;8.52;4.65;;;;;;;;;;5024972;28;20025;-76
2021/12/21 09:57:51;;;;;;;7.20;4.43;;;;;;;;;;5025868;28;20025;-76
2021/12/21 10:00:24;;;;;;;9.90;4.85;;;;;;;;;;5026013;28;20025;-76
2021/12/21 10:02:49;;;;;;;7.10;4.38;;;;;;;;;;5029588;28;20041;-76
2021/12/21 10:05:19;;;;;;;8.38;4.50;;;;;;;;;;5045415;28;20541;-76
2021/12/21 10:07:59;;;;;;;9.40;4.82;;;;;;;;;;5045315;28;20060;-76
2021/12/21 10:10:24;;;;;;;8.50;4.60;;;;;;;;;;5025899;28;20025;-77
2021/12/21 10:12:49;;;;;;;8.63;4.70;;;;;;;;;;5024123;28;20037;-77
2021/12/21 10:15:21;;;;;;;8.57;5.32;;;;;;;;;;5034792;28;20032;-76
2021/12/21 10:17:53;;;;;;;8.47;5.20;;;;;;;;;;5024157;28;20120;-77
2021/12/21 10:20:45;;;;;;;8.48;5.60;;;;;;;;;;5023180;28;20344;-76
2021/12/21 10:23:18;;;;;;;12.15;5.78;;;;;;;;;;5025532;28;20605;-76
2021/12/21 10:25:55;;;;;;;10.15;6.15;;;;;;;;;;5025756;28;20036;-77
2021/12/21 10:28:48;;;;;;;7.53;5.65;;;;;;;;;;5027004;28;20033;-77
2021/12/21 10:31:36;;;;;;;8.80;4.95;;;;;;;;;;5022871;28;20100;-76
2021/12/21 10:34:05;;;;;;;7.25;4.38;;;;;;;;;;5025123;28;20405;-76
2021/12/21 10:36:31;;;;;;;10.82;4.60;;;;;;;;;;5025846;28;20037;-76
2021/12/21 10:39:01;;;;;;;6.93;4.40;;;;;;;;;;5024777;28;20103;-75
2021/12/21 10:41:32;;;;;;;8.35;4.78;;;;;;;;;;5025513;28;20021;-76
2021/12/21 10:44:06;;;;;;;7.30;4.32;;;;;;;;;;5028556;28;20167;-76
2021/12/21 10:46:35;;;;;;;7.32;4.18;;;;;;;;;;5031969;28;20060;-76
2021/12/21 10:49:08;;;;;;;6.85;4.35;;;;;;;;;;5031773;28;20108;-76
2021/12/21 10:51:33;;;;;;;9.88;4.90;;;;;;;;;;5033810;28;20036;-76
2021/12/21 10:53:59;;;;;;;7.43;4.15;;;;;;;;;;5034264;28;20029;-76
2021/12/21 10:56:24;;;;;;;8.98;4.95;;;;;;;;;;5032790;28;20090;-76
2021/12/21 10:58:49;;;;;;;7.05;4.32;;;;;;;;;;5028875;28;20112;-77
2021/12/21 11:01:20;;;;;;;7.10;4.40;;;;;;;;;;5044199;28;20184;-77
2021/12/21 11:03:52;;;;;;;9.88;4.13;;;;;;;;;;5033929;28;20026;-76
2021/12/21 11:06:24;;;;;;;7.40;3.92;;;;;;;;;;5030620;28;20123;-76
2021/12/21 11:08:53;;;;;;;7.00;3.75;;;;;;;;;;5031420;28;20032;-76
2021/12/21 11:11:34;;;;;;;5.80;3.85;;;;;;;;;;5030070;28;20048;-77
2021/12/21 11:14:02;;;;;;;8.65;5.60;;;;;;;;;;5031236;28;20060;-75
2021/12/21 11:16:36;;;;;;;8.38;4.00;;;;;;;;;;5026951;28;20030;-76
2021/12/21 11:19:02;;;;;;;6.15;3.65;;;;;;;;;;5029351;28;20029;-76
2021/12/21 11:21:30;;;;;;;7.28;4.10;;;;;;;;;;5030733;28;20025;-76
2021/12/21 11:23:56;;;;;;;9.23;4.05;;;;;;;;;;5030463;28;20052;-76
2021/12/21 11:26:25;;;;;;;7.80;4.38;;;;;;;;;;5031585;28;20033;-75
2021/12/21 11:28:51;;;;;;;5.75;3.60;;;;;;;;;;5031229;28;20107;-76
2021/12/21 11:31:17;;;;;;;9.25;3.35;;;;;;;;;;5031258;28;20060;-76
2021/12/21 11:33:46;;;;;;;7.22;3.30;;;;;;;;;;5030907;28;20025;-76
2021/12/21 11:39:02;;;;;;;5.25;3.00;;;;;;;;;;5031686;28;20140;-76
2021/12/21 11:41:28;;;;;;;5.20;3.08;;;;;;;;;;5031655;28;20064;-76
2021/12/21 11:44:01;;;;;;;6.97;4.00;;;;;;;;;;5031115;28;20025;-76
2021/12/21 11:46:36;;;;;;;6.57;3.25;;;;;;;;;;5030197;28;20156;-76
2021/12/21 11:49:13;;;;;;;9.77;3.53;;;;;;;;;;5031018;28;20108;-76
2021/12/21 11:51:38;;;;;;;4.90;3.38;;;;;;;;;;5030988;28;20026;-76
2021/12/21 11:54:15;;;;;;;8.32;3.50;;;;;;;;;;5030745;28;20405;-76
2021/12/21 11:56:40;;;;;;;5.35;3.20;;;;;;;;;;5030556;28;20456;-76
2021/12/21 11:59:06;;;;;;;6.38;4.15;;;;;;;;;;5030916;28;20115;-75
2021/12/21 12:01:31;;;;;;;9.82;5.30;;;;;;;;;;5030817;28;20033;-76
2021/12/21 12:04:01;;;;;;;5.78;3.60;;;;;;;;;;5030953;28;20059;-76
2021/12/21 12:06:29;;;;;;;5.80;3.55;;;;;;;;;;5030796;28;20087;-75
2021/12/21 12:09:03;;;;;;;9.52;4.28;;;;;;;;;;5030389;28;20059;-75
2021/12/21 12:11:35;;;;;;;7.47;3.55;;;;;;;;;;5030782;28;20064;-75
2021/12/21 12:14:10;;;;;;;6.05;3.15;;;;;;;;;;5030612;28;20463;-75
2021/12/21 12:16:56;;;;;;;10.38;3.75;;;;;;;;;;5030680;28;20487;-76
2021/12/21 12:19:35;;;;;;;6.15;3.53;;;;;;;;;;5030346;28;20075;-76
2021/12/21 12:22:08;;;;;;;5.63;3.10;;;;;;;;;;5030509;28;20387;-76
2021/12/21 12:24:39;;;;;;;7.47;3.58;;;;;;;;;;5030190;28;20032;-75
2021/12/21 12:27:09;;;;;;;5.32;3.08;;;;;;;;;;5030955;28;20037;-76
2021/12/21 12:30:08;;;;;;;7.75;3.30;;;;;;;;;;5026021;28;20544;-76
2021/12/21 12:32:35;;;;;;;9.43;3.45;;;;;;;;;;5008098;28;20049;-75
2021/12/21 12:35:10;;;;;;;8.73;4.00;;;;;;;;;;5026359;28;20021;-76
2021/12/21 12:37:52;;;;;;;5.82;3.53;;;;;;;;;;5028140;28;20022;-75
2021/12/21 12:40:26;;;;;;;8.98;5.05;;;;;;;;;;5028601;28;20392;-75
2021/12/21 12:43:02;;;;;;;11.10;4.93;;;;;;;;;;5029830;28;20037;-75
2021/12/21 12:45:39;;;;;;;13.63;6.97;;;;;;;;;;5037547;28;20554;-75
2021/12/21 12:48:19;;;;;;;8.65;4.22;;;;;;;;;;5039445;28;20116;-75
2021/12/21 12:50:46;;;;;;;6.47;4.18;;;;;;;;;;5022791;28;20265;-76
2021/12/21 12:53:12;;;;;;;6.05;3.80;;;;;;;;;;5030192;28;20430;-75
2021/12/21 12:55:50;;;;;;;8.88;4.28;;;;;;;;;;5029257;28;20036;-75
2021/12/21 12:58:22;;;;;;;6.35;3.60;;;;;;;;;;5030137;28;20064;-75
2021/12/21 13:01:06;;;;;;;7.55;3.35;;;;;;;;;;5029503;28;20048;-75
2021/12/21 13:03:43;;;;;;;7.60;3.38;;;;;;;;;;5030114;28;20033;-74
2021/12/21 13:06:11;;;;;;;6.93;3.33;;;;;;;;;;5029159;28;20025;-76
2021/12/21 13:08:36;;;;;;;7.88;3.97;;;;;;;;;;5032102;28;20487;-78
2021/12/21 13:11:02;;;;;;;4.35;3.00;;;;;;;;;;5036025;28;20021;-78
2021/12/21 13:13:39;;;;;;;6.50;3.05;;;;;;;;;;5052305;28;20029;-78
2021/12/21 13:16:06;;;;;;;7.88;3.22;;;;;;;;;;5051545;28;20660;-77
2021/12/21 13:18:32;;;;;;;5.35;3.50;;;;;;;;;;5028594;28;20022;-77
2021/12/21 13:20:59;;;;;;;7.07;2.97;;;;;;;;;;5031090;28;20029;-77
2021/12/21 13:23:26;;;;;;;5.88;3.28;;;;;;;;;;5041166;28;20025;-79
2021/12/21 13:25:59;;;;;;;9.27;3.10;;;;;;;;;;5048007;28;20074;-77
2021/12/21 13:28:25;;;;;;;8.25;4.30;;;;;;;;;;5025058;28;20128;-77
2021/12/21 13:30:54;;;;;;;3.97;2.60;;;;;;;;;;5031748;28;20033;-78
2021/12/21 13:33:23;;;;;;;7.75;3.30;;;;;;;;;;5032712;28;20029;-77
2021/12/21 13:35:57;;;;;;;5.63;2.88;;;;;;;;;;5031526;28;20056;-77
2021/12/21 13:38:25;;;;;;;7.18;4.00;;;;;;;;;;5030170;28;20022;-77
2021/12/21 13:41:07;;;;;;;7.72;3.15;;;;;;;;;;5031585;28;20036;-77
2021/12/21 13:43:34;;;;;;;8.43;4.13;;;;;;;;;;5032012;28;20021;-78
2021/12/21 13:46:02;;;;;;;6.22;3.45;;;;;;;;;;5029856;28;20048;-77
2021/12/21 13:48:29;;;;;;;9.10;3.45;;;;;;;;;;5030744;28;20407;-78
2021/12/21 13:51:08;;;;;;;8.65;2.85;;;;;;;;;;5028009;28;20517;-77
2021/12/21 13:53:42;;;;;;;6.70;2.70;;;;;;;;;;5049678;28;20036;-77
2021/12/21 13:56:12;;;;;;;8.20;2.58;;;;;;;;;;5035066;28;20086;-76
2021/12/21 13:58:37;;;;;;;8.15;2.92;;;;;;;;;;5028952;28;20139;-75
2021/12/21 14:01:03;;;;;;;6.10;3.15;;;;;;;;;;5029656;28;20141;-76
2021/12/21 14:03:34;;;;;;;9.00;3.10;;;;;;;;;;5029516;28;20045;-76
2021/12/21 14:06:09;;;;;;;4.18;2.65;;;;;;;;;;5029011;28;20032;-76
2021/12/21 14:08:35;;;;;;;5.45;2.42;;;;;;;;;;5028743;28;20029;-76
2021/12/21 14:11:02;;;;;;;6.80;2.78;;;;;;;;;;5028683;28;20383;-76
2021/12/21 14:13:38;;;;;;;6.72;3.20;;;;;;;;;;5029096;28;20439;-76
2021/12/21 14:16:08;;;;;;;5.40;3.10;;;;;;;;;;5030036;28;20037;-76
2021/12/21 14:18:38;;;;;;;5.10;2.72;;;;;;;;;;5029505;28;20028;-76
2021/12/21 14:21:13;;;;;;;6.63;3.80;;;;;;;;;;5034588;28;20037;-77
2021/12/21 14:23:45;;;;;;;7.28;3.00;;;;;;;;;;5039546;28;20033;-78
2021/12/21 14:26:12;;;;;;;5.68;3.28;;;;;;;;;;5013969;28;20022;-77
2021/12/21 14:28:50;;;;;;;8.10;3.10;;;;;;;;;;5012746;28;20037;-75
2021/12/21 14:31:19;;;;;;;6.85;2.95;;;;;;;;;;5012434;28;20104;-76
2021/12/21 14:33:48;;;;;;;7.35;3.30;;;;;;;;;;5017555;28;20479;-77
2021/12/21 14:36:15;;;;;;;7.47;3.03;;;;;;;;;;5031934;28;20483;-75
2021/12/21 14:38:50;;;;;;;5.43;2.78;;;;;;;;;;5033397;28;20029;-74
2021/12/21 14:41:20;;;;;;;8.82;3.17;;;;;;;;;;5033295;28;20032;-75
2021/12/21 14:43:45;;;;;;;5.13;2.60;;;;;;;;;;5029241;28;20388;-76
2021/12/21 14:46:19;;;;;;;8.77;5.03;;;;;;;;;;5031532;28;20036;-75
2021/12/21 14:48:56;;;;;;;11.35;6.30;;;;;;;;;;5031523;28;20029;-75
2021/12/21 14:51:21;;;;;;;6.78;3.25;;;;;;;;;;5035302;28;20096;-75
2021/12/21 14:53:58;;;;;;;8.77;4.90;;;;;;;;;;5042815;28;20112;-75
2021/12/21 14:56:34;;;;;;;6.28;3.45;;;;;;;;;;5042861;28;20021;-75
2021/12/21 14:59:01;;;;;;;5.72;3.33;;;;;;;;;;5039780;28;20045;-76
2021/12/21 15:01:51;;;;;;;8.27;3.72;;;;;;;;;;5032340;28;20434;-77
2021/12/21 15:04:23;;;;;;;6.70;3.67;;;;;;;;;;5032647;28;20025;-76
2021/12/21 15:06:51;;;;;;;6.28;3.22;;;;;;;;;;5029186;28;20040;-75
2021/12/21 15:09:17;;;;;;;5.63;3.33;;;;;;;;;;5046279;23;20049;-72
2021/12/21 15:11:55;;;;;;;6.57;3.25;;;;;;;;;;5030739;28;20032;-74
2021/12/21 15:14:21;;;;;;;8.48;3.40;;;;;;;;;;5030507;28;20613;-73
2021/12/21 15:16:46;;;;;;;9.80;3.63;;;;;;;;;;5030381;28;20021;-74
2021/12/21 15:19:12;;;;;;;8.80;4.00;;;;;;;;;;5029373;28;20029;-72
2021/12/21 15:21:38;;;;;;;8.05;4.90;;;;;;;;;;5030847;28;20029;-76
2021/12/21 15:24:04;;;;;;;8.82;4.20;;;;;;;;;;5030348;28;20025;-73
2021/12/21 15:26:30;;;;;;;8.40;4.45;;;;;;;;;;5030224;28;20111;-73
2021/12/21 15:28:56;;;;;;;7.28;3.58;;;;;;;;;;5030389;28;20030;-76
2021/12/21 15:31:21;;;;;;;9.60;3.95;;;;;;;;;;5023773;28;20041;-77
2021/12/21 15:33:47;;;;;;;7.28;4.13;;;;;;;;;;5024119;28;20303;-75
2021/12/21 15:36:13;;;;;;;8.65;4.40;;;;;;;;;;5019487;28;20022;-77
2021/12/21 15:38:38;;;;;;;9.68;3.10;;;;;;;;;;5022736;28;20068;-75
2021/12/21 15:41:04;;;;;;;5.60;2.88;;;;;;;;;;5022218;28;20057;-75
2021/12/21 15:43:35;;;;;;;9.07;4.60;;;;;;;;;;5022751;28;20029;-75
2021/12/21 15:46:01;;;;;;;10.85;4.75;;;;;;;;;;5020425;28;20018;-76
2021/12/21 15:48:26;;;;;;;11.05;4.80;;;;;;;;;;5021819;28;20117;-76
2021/12/21 15:50:52;;;;;;;13.02;4.60;;;;;;;;;;5021032;28;20021;-75
2021/12/21 15:53:17;;;;;;;20.00;5.53;;;;;;;;;;5019594;28;20045;-75